createdAt,value
2018-04-17T00:00:27.762Z,54.80
2018-04-17T00:01:33.049Z,54.70
2018-04-17T00:02:39.118Z,54.50
2018-04-17T00:03:43.629Z,54.70
2018-04-17T00:04:47.997Z,54.70
2018-04-17T00:05:52.560Z,54.70
2018-04-17T00:06:56.570Z,54.70
2018-04-17T00:08:03.997Z,54.70
2018-04-17T00:09:08.737Z,54.70
2018-04-17T00:10:13.743Z,54.60
2018-04-17T00:11:18.713Z,54.60
2018-04-17T00:12:24.404Z,54.70
2018-04-17T00:13:29.590Z,54.70
2018-04-17T00:14:37.541Z,54.70
2018-04-17T00:15:42.459Z,54.60
2018-04-17T00:16:47.019Z,54.60
2018-04-17T00:17:53.298Z,54.60
2018-04-17T00:18:58.021Z,54.60
2018-04-17T00:20:02.637Z,54.60
2018-04-17T00:21:07.685Z,54.60
2018-04-17T00:22:12.616Z,54.60
2018-04-17T00:23:17.209Z,54.60
2018-04-17T00:24:21.796Z,54.50
2018-04-17T00:25:27.574Z,54.50
2018-04-17T00:26:31.551Z,54.50
2018-04-17T00:27:36.488Z,54.50
2018-04-17T00:28:41.343Z,54.50
2018-04-17T00:29:47.935Z,54.50
2018-04-17T00:30:55.031Z,54.50
2018-04-17T00:31:59.636Z,54.50
2018-04-17T00:33:04.949Z,54.50
2018-04-17T00:34:10.229Z,54.40
2018-04-17T00:35:16.075Z,54.40
2018-04-17T00:36:23.597Z,54.40
2018-04-17T00:37:27.565Z,54.40
2018-04-17T00:38:32.565Z,54.40
2018-04-17T00:39:37.333Z,54.40
2018-04-17T00:40:42.769Z,53.70
2018-04-17T00:41:48.687Z,54.40
2018-04-17T00:42:53.295Z,54.40
2018-04-17T00:43:57.213Z,54.30
2018-04-17T00:46:06.190Z,54.30
2018-04-17T00:47:11.190Z,54.30
2018-04-17T00:48:18.044Z,54.30
2018-04-17T00:49:22.234Z,54.30
2018-04-17T00:50:27.216Z,54.20
2018-04-17T00:51:31.217Z,54.30
2018-04-17T00:52:35.661Z,54.30
2018-04-17T00:53:53.320Z,54.20
2018-04-17T00:54:57.330Z,54.10
2018-04-17T00:56:01.770Z,54.20
2018-04-17T00:57:07.747Z,54.20
2018-04-17T00:58:13.453Z,54.10
2018-04-17T00:59:18.281Z,54.10
2018-04-17T01:00:22.872Z,54.20
2018-04-17T01:01:28.311Z,54.10
2018-04-17T01:02:34.725Z,54.10
2018-04-17T01:03:39.452Z,54.80
2018-04-17T01:04:45.257Z,54.10
2018-04-17T01:05:49.178Z,54.10
2018-04-17T01:06:55.119Z,54.10
2018-04-17T01:08:00.620Z,54.10
2018-04-17T01:09:05.742Z,54.00
2018-04-17T01:10:10.923Z,54.60
2018-04-17T01:11:15.053Z,54.00
2018-04-17T01:12:19.585Z,54.00
2018-04-17T01:13:23.584Z,54.90
2018-04-17T01:14:28.036Z,54.00
2018-04-17T01:15:33.015Z,54.00
2018-04-17T01:16:38.145Z,54.00
2018-04-17T01:17:42.091Z,54.00
2018-04-17T01:18:46.896Z,54.00
2018-04-17T01:19:53.537Z,53.90
2018-04-17T01:20:57.507Z,54.00
2018-04-17T01:22:02.502Z,53.90
2018-04-17T01:23:06.547Z,53.60
2018-04-17T01:24:11.094Z,53.90
2018-04-17T01:25:15.169Z,53.90
2018-04-17T01:26:19.854Z,53.90
2018-04-17T01:27:24.105Z,53.90
2018-04-17T01:28:28.793Z,53.90
2018-04-17T01:29:32.732Z,53.90
2018-04-17T01:30:38.704Z,53.90
2018-04-17T01:31:43.446Z,53.80
2018-04-17T01:32:48.206Z,53.80
2018-04-17T01:33:54.109Z,53.80
2018-04-17T01:35:00.687Z,53.80
2018-04-17T01:36:04.644Z,53.80
2018-04-17T01:37:09.336Z,53.80
2018-04-17T01:38:13.336Z,53.80
2018-04-17T01:39:19.342Z,53.80
2018-04-17T01:40:24.788Z,53.80
2018-04-17T01:41:30.399Z,53.80
2018-04-17T01:42:35.068Z,54.60
2018-04-17T01:43:41.507Z,53.70
2018-04-17T01:44:45.425Z,53.70
2018-04-17T01:45:51.002Z,53.80
2018-04-17T01:46:55.763Z,53.80
2018-04-17T01:48:00.898Z,53.70
2018-04-17T01:49:05.452Z,53.70
2018-04-17T01:50:09.424Z,53.70
2018-04-17T01:51:14.581Z,53.70
2018-04-17T01:52:19.388Z,53.70
2018-04-17T01:53:23.981Z,53.60
2018-04-17T01:54:29.333Z,53.60
2018-04-17T01:55:34.360Z,53.60
2018-04-17T01:56:39.013Z,53.60
2018-04-17T01:57:43.357Z,53.60
2018-04-17T01:58:48.785Z,53.60
2018-04-17T01:59:53.578Z,53.60
2018-04-17T02:00:59.737Z,53.70
2018-04-17T02:02:04.288Z,53.60
2018-04-17T02:03:08.918Z,53.60
2018-04-17T02:04:13.779Z,53.50
2018-04-17T02:05:18.597Z,53.60
2018-04-17T02:06:23.597Z,53.60
2018-04-17T02:07:27.594Z,53.50
2018-04-17T02:08:32.514Z,53.50
2018-04-17T02:09:36.468Z,53.50
2018-04-17T02:10:41.834Z,53.50
2018-04-17T02:11:47.035Z,53.50
2018-04-17T02:12:51.770Z,53.50
2018-04-17T02:13:56.495Z,53.50
2018-04-17T02:15:00.407Z,53.50
2018-04-17T02:16:05.159Z,53.50
2018-04-17T02:17:09.753Z,53.40
2018-04-17T02:18:14.616Z,53.40
2018-04-17T02:19:19.317Z,53.40
2018-04-17T02:20:24.779Z,53.40
2018-04-17T02:21:28.786Z,53.40
2018-04-17T02:22:33.805Z,53.40
2018-04-17T02:23:37.748Z,54.00
2018-04-17T02:24:43.369Z,53.30
2018-04-17T02:25:48.134Z,53.30
2018-04-17T02:26:53.849Z,53.30
2018-04-17T02:27:58.661Z,53.30
2018-04-17T02:29:02.595Z,53.30
2018-04-17T02:30:08.552Z,53.20
2018-04-17T02:31:14.447Z,53.20
2018-04-17T02:32:18.399Z,53.20
2018-04-17T02:33:24.928Z,53.40
2018-04-17T02:34:29.385Z,53.20
2018-04-17T02:35:34.245Z,53.20
2018-04-17T02:36:40.530Z,53.20
2018-04-17T02:37:46.024Z,53.10
2018-04-17T02:38:49.968Z,53.10
2018-04-17T02:39:55.717Z,53.10
2018-04-17T02:40:59.732Z,53.10
2018-04-17T02:42:05.101Z,53.10
2018-04-17T02:43:10.888Z,53.10
2018-04-17T02:44:15.609Z,53.00
2018-04-17T02:45:20.415Z,53.00
2018-04-17T02:46:26.827Z,53.00
2018-04-17T02:47:31.625Z,53.00
2018-04-17T02:48:36.440Z,52.90
2018-04-17T02:49:40.368Z,52.90
2018-04-17T02:50:46.165Z,52.90
2018-04-17T02:51:50.081Z,52.20
2018-04-17T02:52:54.775Z,52.90
2018-04-17T02:53:58.750Z,52.90
2018-04-17T02:55:03.671Z,52.90
2018-04-17T02:56:07.894Z,52.90
2018-04-17T02:57:13.359Z,52.90
2018-04-17T02:58:19.013Z,52.90
2018-04-17T02:59:24.276Z,52.90
2018-04-17T03:00:29.841Z,53.20
2018-04-17T03:01:35.269Z,52.80
2018-04-17T03:02:40.217Z,52.80
2018-04-17T03:03:44.930Z,52.80
2018-04-17T03:04:49.577Z,52.80
2018-04-17T03:05:54.257Z,52.80
2018-04-17T03:06:58.957Z,52.80
2018-04-17T03:08:03.517Z,52.70
2018-04-17T03:09:08.389Z,52.70
2018-04-17T03:10:14.321Z,52.70
2018-04-17T03:11:20.947Z,52.70
2018-04-17T03:12:25.809Z,52.70
2018-04-17T03:13:32.521Z,52.60
2018-04-17T03:14:37.686Z,52.60
2018-04-17T03:15:42.398Z,52.60
2018-04-17T03:16:48.147Z,52.20
2018-04-17T03:17:55.139Z,52.50
2018-04-17T03:18:59.065Z,52.40
2018-04-17T03:20:03.785Z,52.50
2018-04-17T03:21:08.821Z,52.60
2018-04-17T03:22:13.936Z,52.40
2018-04-17T03:23:18.689Z,52.50
2018-04-17T03:26:19.421Z,52.50
2018-04-17T03:27:24.234Z,52.40
2018-04-17T03:28:29.209Z,52.80
2018-04-17T03:29:33.622Z,53.40
2018-04-17T03:30:38.730Z,52.20
2018-04-17T03:31:42.788Z,52.30
2018-04-17T03:32:47.754Z,52.20
2018-04-17T03:33:51.733Z,52.40
2018-04-17T03:34:58.254Z,52.40
2018-04-17T03:36:03.297Z,52.30
2018-04-17T03:37:07.315Z,52.30
2018-04-17T03:38:11.273Z,52.20
2018-04-17T03:39:15.358Z,52.10
2018-04-17T03:40:19.334Z,52.10
2018-04-17T03:41:23.392Z,52.20
2018-04-17T03:42:28.206Z,52.20
2018-04-17T03:43:32.178Z,51.90
2018-04-17T03:44:37.077Z,53.30
2018-04-17T03:45:41.768Z,52.00
2018-04-17T03:46:46.570Z,52.10
2018-04-17T03:47:51.330Z,52.10
2018-04-17T03:48:56.309Z,52.00
2018-04-17T03:50:01.356Z,52.10
2018-04-17T03:51:06.939Z,52.20
2018-04-17T03:52:10.921Z,52.10
2018-04-17T03:53:14.958Z,52.30
2018-04-17T03:54:19.582Z,50.90
2018-04-17T03:55:25.039Z,52.00
2018-04-17T03:56:31.502Z,52.00
2018-04-17T03:57:36.916Z,52.00
2018-04-17T03:58:41.834Z,52.00
2018-04-17T03:59:46.781Z,52.00
2018-04-17T04:00:52.526Z,52.00
2018-04-17T04:01:58.286Z,52.70
2018-04-17T04:03:03.061Z,52.70
2018-04-17T04:04:08.009Z,52.00
2018-04-17T04:05:17.019Z,52.00
2018-04-17T04:06:23.792Z,52.00
2018-04-17T04:07:30.365Z,52.00
2018-04-17T04:08:35.448Z,52.00
2018-04-17T04:09:40.286Z,52.00
2018-04-17T04:10:45.900Z,52.00
2018-04-17T04:11:50.013Z,52.60
2018-04-17T04:12:54.892Z,52.00
2018-04-17T04:13:59.370Z,51.90
2018-04-17T04:15:04.334Z,52.00
2018-04-17T04:16:17.355Z,52.00
2018-04-17T04:21:41.046Z,51.90
2018-04-17T04:24:58.941Z,51.90
2018-04-17T04:26:07.770Z,51.90
2018-04-17T04:27:11.809Z,51.80
2018-04-17T04:28:15.973Z,51.80
2018-04-17T04:29:21.196Z,51.80
2018-04-17T04:30:25.352Z,51.80
2018-04-17T04:31:30.601Z,51.80
2018-04-17T04:32:36.019Z,51.80
2018-04-17T04:33:41.045Z,51.80
2018-04-17T04:34:45.351Z,51.80
2018-04-17T04:35:51.348Z,51.90
2018-04-17T04:36:55.908Z,51.80
2018-04-17T04:38:00.198Z,51.70
2018-04-17T04:39:05.446Z,51.80
2018-04-17T04:40:09.501Z,51.70
2018-04-17T04:41:14.265Z,51.80
2018-04-17T04:42:19.475Z,51.80
2018-04-17T04:43:23.521Z,51.80
2018-04-17T04:44:28.804Z,51.80
2018-04-17T04:45:33.799Z,51.80
2018-04-17T04:46:39.937Z,51.80
2018-04-17T04:47:44.568Z,51.80
2018-04-17T04:48:49.494Z,51.80
2018-04-17T04:49:56.490Z,51.70
2018-04-17T04:51:00.792Z,51.80
2018-04-17T04:52:04.995Z,51.00
2018-04-17T04:53:09.931Z,51.80
2018-04-17T04:54:16.212Z,51.80
2018-04-17T04:55:20.325Z,51.70
2018-04-17T04:56:27.090Z,51.40
2018-04-17T04:57:32.471Z,51.90
2018-04-17T04:58:37.447Z,51.80
2018-04-17T04:59:42.568Z,51.80
2018-04-17T05:00:47.762Z,51.70
2018-04-17T05:01:52.758Z,51.80
2018-04-17T05:02:57.034Z,51.60
2018-04-17T05:04:01.159Z,51.70
2018-04-17T05:05:05.664Z,51.80
2018-04-17T05:06:10.290Z,51.90
2018-04-17T05:07:16.184Z,52.20
2018-04-17T05:08:21.883Z,50.50
2018-04-17T05:09:26.935Z,52.50
2018-04-17T05:10:33.606Z,51.80
2018-04-17T05:11:38.666Z,51.80
2018-04-17T05:12:42.651Z,51.80
2018-04-17T05:13:48.269Z,51.80
2018-04-17T05:14:53.351Z,51.70
2018-04-17T05:15:57.336Z,51.70
2018-04-17T05:17:01.963Z,51.70
2018-04-17T05:18:06.839Z,51.70
2018-04-17T05:19:11.959Z,51.20
2018-04-17T05:20:18.279Z,51.70
2018-04-17T05:21:22.800Z,51.70
2018-04-17T05:22:27.762Z,51.80
2018-04-17T05:23:33.859Z,51.70
2018-04-17T05:24:38.720Z,51.70
2018-04-17T05:25:43.453Z,51.70
2018-04-17T05:26:48.737Z,51.70
2018-04-17T05:27:54.784Z,51.80
2018-04-17T05:28:59.442Z,51.80
2018-04-17T05:30:05.464Z,51.70
2018-04-17T05:31:10.416Z,51.70
2018-04-17T05:32:16.130Z,51.70
2018-04-17T05:33:20.106Z,51.70
2018-04-17T05:34:25.664Z,51.70
2018-04-17T05:35:32.478Z,51.70
2018-04-17T05:36:38.585Z,51.70
2018-04-17T05:37:44.541Z,51.70
2018-04-17T05:38:49.799Z,51.70
2018-04-17T05:39:53.800Z,51.70
2018-04-17T05:40:59.089Z,51.70
2018-04-17T05:42:03.293Z,51.70
2018-04-17T05:43:07.473Z,51.70
2018-04-17T05:44:19.612Z,51.80
2018-04-17T05:45:30.695Z,51.80
2018-04-17T05:46:35.414Z,51.80
2018-04-17T05:47:40.057Z,51.30
2018-04-17T05:48:44.832Z,51.80
2018-04-17T05:49:49.761Z,51.70
2018-04-17T05:50:54.396Z,51.80
2018-04-17T05:51:58.481Z,51.70
2018-04-17T05:53:05.351Z,51.80
2018-04-17T05:54:10.152Z,51.90
2018-04-17T05:55:14.209Z,51.80
2018-04-17T05:56:18.856Z,51.80
2018-04-17T05:57:24.378Z,51.80
2018-04-17T05:58:29.071Z,51.80
2018-04-17T05:59:33.038Z,51.90
2018-04-17T06:00:37.335Z,51.90
2018-04-17T06:01:41.760Z,51.90
2018-04-17T06:02:46.710Z,51.90
2018-04-17T06:03:50.738Z,51.90
2018-04-17T06:04:54.855Z,51.90
2018-04-17T06:05:59.748Z,51.90
2018-04-17T06:07:04.789Z,51.90
2018-04-17T06:08:09.150Z,51.90
2018-04-17T06:09:13.966Z,51.90
2018-04-17T06:10:18.536Z,51.90
2018-04-17T06:11:23.332Z,51.90
2018-04-17T06:12:27.302Z,51.90
2018-04-17T06:13:34.365Z,51.90
2018-04-17T06:14:40.055Z,51.90
2018-04-17T06:15:45.790Z,51.90
2018-04-17T06:16:50.677Z,51.90
2018-04-17T06:17:55.091Z,51.90
2018-04-17T06:18:59.332Z,51.90
2018-04-17T06:20:03.314Z,51.90
2018-04-17T06:21:07.425Z,52.00
2018-04-17T06:22:11.602Z,52.00
2018-04-17T06:23:17.013Z,52.00
2018-04-17T06:24:21.130Z,52.00
2018-04-17T06:25:26.196Z,52.10
2018-04-17T06:26:31.842Z,52.00
2018-04-17T06:27:36.570Z,52.10
2018-04-17T06:28:43.005Z,52.10
2018-04-17T06:29:48.230Z,52.10
2018-04-17T06:30:52.929Z,52.20
2018-04-17T06:31:57.525Z,52.10
2018-04-17T06:33:02.874Z,52.00
2018-04-17T06:34:07.308Z,52.10
2018-04-17T06:35:12.478Z,52.20
2018-04-17T06:36:16.938Z,52.50
2018-04-17T06:37:21.672Z,52.10
2018-04-17T06:38:27.440Z,52.20
2018-04-17T06:39:31.790Z,52.20
2018-04-17T06:40:35.782Z,52.10
2018-04-17T06:41:40.673Z,52.00
2018-04-17T06:42:45.703Z,52.00
2018-04-17T06:43:51.054Z,52.10
2018-04-17T06:44:57.070Z,52.10
2018-04-17T06:46:02.712Z,52.20
2018-04-17T06:47:07.551Z,52.10
2018-04-17T06:48:12.415Z,52.20
2018-04-17T06:49:16.711Z,52.10
2018-04-17T06:50:20.702Z,52.30
2018-04-17T06:51:26.994Z,52.20
2018-04-17T06:52:32.109Z,52.20
2018-04-17T06:53:37.814Z,52.20
2018-04-17T06:54:44.032Z,52.20
2018-04-17T06:55:49.017Z,52.20
2018-04-17T06:56:54.610Z,52.20
2018-04-17T06:57:59.502Z,52.20
2018-04-17T06:59:04.322Z,52.20
2018-04-17T07:00:09.667Z,52.20
2018-04-17T07:01:14.600Z,52.20
2018-04-17T07:02:23.925Z,52.30
2018-04-17T07:03:29.469Z,51.50
2018-04-17T07:04:35.362Z,52.30
2018-04-17T07:05:40.746Z,52.30
2018-04-17T07:06:45.521Z,52.30
2018-04-17T07:07:52.673Z,52.40
2018-04-17T07:08:58.357Z,51.90
2018-04-17T07:10:02.389Z,52.30
2018-04-17T07:11:08.299Z,52.20
2018-04-17T07:12:13.991Z,52.30
2018-04-17T07:13:18.782Z,52.40
2018-04-17T07:14:23.041Z,52.40
2018-04-17T07:15:28.425Z,52.40
2018-04-17T07:16:32.858Z,52.40
2018-04-17T07:17:37.658Z,52.40
2018-04-17T07:18:42.446Z,52.50
2018-04-17T07:19:47.913Z,52.40
2018-04-17T07:20:52.747Z,52.40
2018-04-17T07:21:56.756Z,52.40
2018-04-17T07:23:02.788Z,52.40
2018-04-17T07:24:07.727Z,52.50
2018-04-17T07:25:13.155Z,52.40
2018-04-17T07:26:17.952Z,52.50
2018-04-17T07:27:24.599Z,52.40
2018-04-17T07:28:29.155Z,52.40
2018-04-17T07:29:34.670Z,52.50
2018-04-17T07:30:42.442Z,52.50
2018-04-17T07:31:47.241Z,52.60
2018-04-17T07:32:53.574Z,52.70
2018-04-17T07:33:58.484Z,51.80
2018-04-17T07:35:04.167Z,52.60
2018-04-17T07:36:08.892Z,52.60
2018-04-17T07:37:15.068Z,52.60
2018-04-17T07:38:19.624Z,52.60
2018-04-17T07:39:24.669Z,52.60
2018-04-17T07:40:29.152Z,52.60
2018-04-17T07:41:33.934Z,52.60
2018-04-17T07:42:38.781Z,52.60
2018-04-17T07:43:44.170Z,52.60
2018-04-17T07:44:48.842Z,52.60
2018-04-17T07:45:55.856Z,52.70
2018-04-17T07:47:09.638Z,52.70
2018-04-17T07:48:23.218Z,52.70
2018-04-17T07:49:28.016Z,52.70
2018-04-17T07:50:31.996Z,52.70
2018-04-17T07:51:36.835Z,52.70
2018-04-17T07:52:40.973Z,52.70
2018-04-17T07:53:47.082Z,52.80
2018-04-17T07:54:52.101Z,52.80
2018-04-17T07:55:56.841Z,53.30
2018-04-17T07:57:02.141Z,52.80
2018-04-17T07:58:07.178Z,52.60
2018-04-17T07:59:15.137Z,52.70
2018-04-17T08:00:19.196Z,52.80
2018-04-17T08:01:25.117Z,52.70
2018-04-17T08:02:29.866Z,52.80
2018-04-17T08:03:35.016Z,52.80
2018-04-17T08:04:39.813Z,52.70
2018-04-17T08:05:45.599Z,52.70
2018-04-17T08:06:49.599Z,52.70
2018-04-17T08:07:54.299Z,52.70
2018-04-17T08:09:00.802Z,52.80
2018-04-17T08:10:07.102Z,52.80
2018-04-17T08:11:13.935Z,53.50
2018-04-17T08:12:17.947Z,52.90
2018-04-17T08:13:22.797Z,52.90
2018-04-17T08:14:28.440Z,52.90
2018-04-17T08:15:34.019Z,52.90
2018-04-17T08:16:39.266Z,52.90
2018-04-17T08:17:44.394Z,52.90
2018-04-17T08:18:50.255Z,52.90
2018-04-17T08:19:57.216Z,52.90
2018-04-17T08:21:04.575Z,52.90
2018-04-17T08:22:13.520Z,53.00
2018-04-17T08:23:20.912Z,53.50
2018-04-17T08:24:27.212Z,53.00
2018-04-17T08:25:32.285Z,53.00
2018-04-17T08:26:37.969Z,52.90
2018-04-17T08:27:42.992Z,52.90
2018-04-17T08:28:47.533Z,52.90
2018-04-17T08:29:52.691Z,53.00
2018-04-17T08:31:00.194Z,53.10
2018-04-17T08:32:05.010Z,53.10
2018-04-17T08:33:10.208Z,53.00
2018-04-17T08:34:15.137Z,53.10
2018-04-17T08:35:20.365Z,53.20
2018-04-17T08:36:25.067Z,53.20
2018-04-17T08:37:29.378Z,53.20
2018-04-17T08:38:35.666Z,53.10
2018-04-17T08:39:40.297Z,53.20
2018-04-17T08:40:45.351Z,53.20
2018-04-17T08:41:51.231Z,52.60
2018-04-17T08:42:56.317Z,52.00
2018-04-17T08:44:00.287Z,53.10
2018-04-17T08:45:05.162Z,53.10
2018-04-17T08:46:10.225Z,53.00
2018-04-17T08:47:15.112Z,53.10
2018-04-17T08:48:19.919Z,53.10
2018-04-17T08:49:25.622Z,53.10
2018-04-17T08:50:30.457Z,53.10
2018-04-17T08:51:34.679Z,53.80
2018-04-17T08:52:40.023Z,53.10
2018-04-17T08:53:44.062Z,53.10
2018-04-17T08:54:48.070Z,53.20
2018-04-17T08:55:52.045Z,52.80
2018-04-17T08:56:56.862Z,53.10
2018-04-17T08:58:02.437Z,53.20
2018-04-17T08:59:08.140Z,53.20
2018-04-17T09:00:14.107Z,53.30
2018-04-17T09:01:18.559Z,53.30
2018-04-17T09:02:22.645Z,53.90
2018-04-17T09:03:26.677Z,53.30
2018-04-17T09:04:31.005Z,53.30
2018-04-17T09:05:36.213Z,53.40
2018-04-17T09:06:41.879Z,53.40
2018-04-17T09:07:47.891Z,52.30
2018-04-17T09:08:51.972Z,53.30
2018-04-17T09:09:56.290Z,53.20
2018-04-17T09:11:02.110Z,53.20
2018-04-17T09:12:07.925Z,53.10
2018-04-17T09:13:14.419Z,53.10
2018-04-17T09:14:20.923Z,53.10
2018-04-17T09:15:27.248Z,53.00
2018-04-17T09:16:33.110Z,53.00
2018-04-17T09:17:39.179Z,53.10
2018-04-17T09:18:44.564Z,53.00
2018-04-17T09:19:49.951Z,53.00
2018-04-17T09:20:54.699Z,53.00
2018-04-17T09:21:59.813Z,53.10
2018-04-17T09:23:06.004Z,53.10
2018-04-17T09:24:10.482Z,53.00
2018-04-17T09:25:14.459Z,53.00
2018-04-17T09:26:21.217Z,53.60
2018-04-17T09:27:27.328Z,53.20
2018-04-17T09:28:34.173Z,53.20
2018-04-17T09:29:39.171Z,53.10
2018-04-17T09:30:45.342Z,52.70
2018-04-17T09:31:49.408Z,52.70
2018-04-17T09:32:55.036Z,53.10
2018-04-17T09:33:59.912Z,53.20
2018-04-17T09:35:04.458Z,53.20
2018-04-17T09:36:08.709Z,53.20
2018-04-17T09:37:13.750Z,53.20
2018-04-17T09:38:17.751Z,53.30
2018-04-17T09:39:22.758Z,53.20
2018-04-17T09:40:26.818Z,53.10
2018-04-17T09:41:30.957Z,53.00
2018-04-17T09:42:35.113Z,53.00
2018-04-17T09:43:39.833Z,52.90
2018-04-17T09:44:44.381Z,53.00
2018-04-17T09:45:49.113Z,53.00
2018-04-17T09:46:53.543Z,52.60
2018-04-17T09:48:03.157Z,52.90
2018-04-17T09:49:07.925Z,53.00
2018-04-17T09:50:11.971Z,52.90
2018-04-17T09:51:20.738Z,52.80
2018-04-17T09:52:24.965Z,52.80
2018-04-17T09:53:30.612Z,52.80
2018-04-17T09:54:34.951Z,52.40
2018-04-17T09:55:39.639Z,52.80
2018-04-17T09:56:43.644Z,53.70
2018-04-17T09:57:47.683Z,52.80
2018-04-17T09:58:51.744Z,52.80
2018-04-17T09:59:56.084Z,52.90
2018-04-17T10:01:01.071Z,52.90
2018-04-17T10:02:06.101Z,52.60
2018-04-17T10:03:10.406Z,52.00
2018-04-17T10:04:15.989Z,52.00
2018-04-17T10:05:20.729Z,53.00
2018-04-17T10:06:25.742Z,53.10
2018-04-17T10:07:30.608Z,53.00
2018-04-17T10:08:35.705Z,53.80
2018-04-17T10:09:42.039Z,53.20
2018-04-17T10:10:47.530Z,53.10
2018-04-17T10:11:51.522Z,53.10
2018-04-17T10:12:57.256Z,52.60
2018-04-17T10:14:02.783Z,53.00
2018-04-17T10:15:08.395Z,53.90
2018-04-17T10:16:13.389Z,53.70
2018-04-17T10:17:18.327Z,52.90
2018-04-17T10:18:23.582Z,52.90
2018-04-17T10:19:29.788Z,52.00
2018-04-17T10:20:37.377Z,52.80
2018-04-17T10:21:42.199Z,52.90
2018-04-17T10:22:47.480Z,52.90
2018-04-17T10:23:52.304Z,52.90
2018-04-17T10:24:58.068Z,52.90
2018-04-17T10:26:02.351Z,52.80
2018-04-17T10:27:08.045Z,52.90
2018-04-17T10:28:12.943Z,53.00
2018-04-17T10:29:18.499Z,52.90
2018-04-17T10:33:29.755Z,52.80
2018-04-17T10:34:34.059Z,52.90
2018-04-17T10:35:38.755Z,52.90
2018-04-17T10:36:44.431Z,52.70
2018-04-17T10:40:56.284Z,51.60
2018-04-17T10:42:01.497Z,52.50
2018-04-17T10:43:07.447Z,52.50
2018-04-17T10:44:11.729Z,52.50
2018-04-17T10:45:15.890Z,52.40
2018-04-17T10:46:20.684Z,52.40
2018-04-17T10:47:24.997Z,52.30
2018-04-17T10:48:31.093Z,52.40
2018-04-17T10:49:35.152Z,52.40
2018-04-17T10:50:39.914Z,52.50
2018-04-17T10:51:44.506Z,52.40
2018-04-17T10:52:50.669Z,52.40
2018-04-17T10:53:56.242Z,52.40
2018-04-17T10:55:00.321Z,51.20
2018-04-17T10:56:08.192Z,52.30
2018-04-17T10:57:12.308Z,52.30
2018-04-17T10:58:17.407Z,52.20
2018-04-17T10:59:21.590Z,52.20
2018-04-17T11:00:26.415Z,52.20
2018-04-17T11:01:31.205Z,52.70
2018-04-17T11:02:35.851Z,52.30
2018-04-17T11:03:42.017Z,52.10
2018-04-17T11:04:48.269Z,52.10
2018-04-17T11:05:54.525Z,52.10
2018-04-17T11:06:59.724Z,52.10
2018-04-17T11:08:04.673Z,52.10
2018-04-17T11:12:15.126Z,52.00
2018-04-17T11:13:20.110Z,52.00
2018-04-17T11:14:24.809Z,52.00
2018-04-17T11:15:30.313Z,51.90
2018-04-17T11:16:35.352Z,51.90
2018-04-17T11:17:40.289Z,51.90
2018-04-17T11:18:45.258Z,51.90
2018-04-17T11:19:52.741Z,51.80
2018-04-17T11:20:58.438Z,51.80
2018-04-17T11:22:03.278Z,53.00
2018-04-17T11:23:08.231Z,51.90
2018-04-17T11:24:14.029Z,51.90
2018-04-17T11:25:19.898Z,51.90
2018-04-17T11:26:24.043Z,51.90
2018-04-17T11:27:28.778Z,51.80
2018-04-17T11:28:32.977Z,51.80
2018-04-17T11:29:39.093Z,51.80
2018-04-17T11:30:49.729Z,51.80
2018-04-17T11:31:54.568Z,51.80
2018-04-17T11:33:00.287Z,52.00
2018-04-17T11:34:04.335Z,51.80
2018-04-17T11:35:08.498Z,51.70
2018-04-17T11:36:14.249Z,51.80
2018-04-17T11:37:18.673Z,52.90
2018-04-17T11:38:23.757Z,51.80
2018-04-17T11:39:27.935Z,52.50
2018-04-17T11:40:32.368Z,51.80
2018-04-17T11:41:37.228Z,51.60
2018-04-17T11:42:42.061Z,51.70
2018-04-17T11:43:46.855Z,51.60
2018-04-17T11:44:52.890Z,51.60
2018-04-17T11:45:57.311Z,51.60
2018-04-17T11:47:02.450Z,51.60
2018-04-17T11:48:06.991Z,51.60
2018-04-17T11:49:11.173Z,51.50
2018-04-17T11:50:16.047Z,52.60
2018-04-17T11:51:20.095Z,51.30
2018-04-17T11:52:26.839Z,51.60
2018-04-17T11:53:32.864Z,51.30
2018-04-17T11:54:37.430Z,51.30
2018-04-17T11:55:41.560Z,51.30
2018-04-17T11:56:47.686Z,51.20
2018-04-17T11:57:51.848Z,51.70
2018-04-17T11:58:56.604Z,51.30
2018-04-17T12:00:00.631Z,51.20
2018-04-17T12:01:04.677Z,51.20
2018-04-17T12:02:11.361Z,51.10
2018-04-17T12:03:15.750Z,51.10
2018-04-17T12:04:21.425Z,51.20
2018-04-17T12:05:28.347Z,51.10
2018-04-17T12:06:32.799Z,51.10
2018-04-17T12:07:37.072Z,51.10
2018-04-17T12:08:41.854Z,51.10
2018-04-17T12:14:00.357Z,51.10
2018-04-17T12:15:05.748Z,50.90
2018-04-17T12:16:13.656Z,50.50
2018-04-17T12:17:17.830Z,50.90
2018-04-17T12:21:27.555Z,50.70
2018-04-17T12:22:36.013Z,50.70
2018-04-17T12:26:47.189Z,50.80
2018-04-17T12:27:52.548Z,50.40
2018-04-17T12:28:57.369Z,50.90
2018-04-17T12:30:02.124Z,50.80
2018-04-17T12:31:07.907Z,51.00
2018-04-17T12:32:12.844Z,51.00
2018-04-17T12:33:18.489Z,49.80
2018-04-17T12:34:23.483Z,51.00
2018-04-17T12:35:29.223Z,50.80
2018-04-17T12:36:34.085Z,50.90
2018-04-17T12:37:41.332Z,50.80
2018-04-17T12:38:46.122Z,50.80
2018-04-17T12:39:50.114Z,51.00
2018-04-17T12:40:55.338Z,50.80
2018-04-17T12:45:06.054Z,50.50
2018-04-17T12:46:10.155Z,50.90
2018-04-17T12:47:15.036Z,50.90
2018-04-17T12:48:21.133Z,50.10
2018-04-17T12:49:27.772Z,50.80
2018-04-17T12:51:42.641Z,50.90
2018-04-17T12:52:47.295Z,50.80
2018-04-17T12:53:53.031Z,50.90
2018-04-17T12:54:59.826Z,51.00
2018-04-17T12:56:04.082Z,51.20
2018-04-17T12:57:08.804Z,51.00
2018-04-17T12:58:13.914Z,50.90
2018-04-17T12:59:19.615Z,50.30
2018-04-17T13:00:24.847Z,50.80
2018-04-17T13:01:28.913Z,50.80
2018-04-17T13:02:33.383Z,50.90
2018-04-17T13:03:38.790Z,51.00
2018-04-17T13:04:44.727Z,51.00
2018-04-17T13:05:50.836Z,51.20
2018-04-17T13:06:55.224Z,51.10
2018-04-17T13:08:00.989Z,51.10
2018-04-17T13:09:06.832Z,51.10
2018-04-17T13:10:12.596Z,50.60
2018-04-17T13:11:18.233Z,50.50
2018-04-17T13:12:23.050Z,50.60
2018-04-17T13:13:28.942Z,50.70
2018-04-17T13:14:34.083Z,50.70
2018-04-17T13:15:39.334Z,50.80
2018-04-17T13:16:44.958Z,50.80
2018-04-17T13:17:49.260Z,50.70
2018-04-17T13:18:54.125Z,50.70
2018-04-17T13:20:00.291Z,50.70
2018-04-17T13:21:04.450Z,50.50
2018-04-17T13:22:10.741Z,52.00
2018-04-17T13:23:16.821Z,50.70
2018-04-17T13:24:22.846Z,50.60
2018-04-17T13:25:27.753Z,51.60
2018-04-17T13:26:33.759Z,50.60
2018-04-17T13:27:39.576Z,50.80
2018-04-17T13:28:44.701Z,51.00
2018-04-17T13:29:50.154Z,51.00
2018-04-17T13:30:56.043Z,50.90
2018-04-17T13:32:00.868Z,50.00
2018-04-17T13:33:07.707Z,50.90
2018-04-17T13:34:12.904Z,50.90
2018-04-17T13:35:19.129Z,50.90
2018-04-17T13:36:25.781Z,50.80
2018-04-17T13:37:30.606Z,50.80
2018-04-17T13:38:35.378Z,50.80
2018-04-17T13:39:40.311Z,50.80
2018-04-17T13:40:44.666Z,49.80
2018-04-17T13:41:49.463Z,50.80
2018-04-17T13:42:54.194Z,50.90
2018-04-17T13:43:59.324Z,50.90
2018-04-17T13:45:03.735Z,50.70
2018-04-17T13:46:11.592Z,50.30
2018-04-17T13:47:17.291Z,50.60
2018-04-17T13:48:23.311Z,50.60
2018-04-17T13:49:28.314Z,50.70
2018-04-17T13:50:33.866Z,51.40
2018-04-17T13:51:38.798Z,50.90
2018-04-17T13:52:45.305Z,50.20
2018-04-17T13:53:50.296Z,50.90
2018-04-17T13:54:55.063Z,50.90
2018-04-17T13:56:00.546Z,50.70
2018-04-17T13:57:05.258Z,50.70
2018-04-17T13:58:10.315Z,50.80
2018-04-17T13:59:16.359Z,51.00
2018-04-17T14:00:20.381Z,51.10
2018-04-17T14:01:27.493Z,51.00
2018-04-17T14:02:33.039Z,51.00
2018-04-17T14:03:39.942Z,49.80
2018-04-17T14:04:44.714Z,50.60
2018-04-17T14:05:50.762Z,50.40
2018-04-17T14:06:55.467Z,50.80
2018-04-17T14:08:01.158Z,50.80
2018-04-17T14:09:07.522Z,50.20
2018-04-17T14:10:12.295Z,50.20
2018-04-17T14:11:17.262Z,50.20
2018-04-17T14:12:21.509Z,49.80
2018-04-17T14:13:26.620Z,51.10
2018-04-17T14:14:32.076Z,50.60
2018-04-17T14:15:38.233Z,50.60
2018-04-17T14:16:42.279Z,51.40
2018-04-17T14:17:47.077Z,50.60
2018-04-17T14:18:51.901Z,50.50
2018-04-17T14:19:56.863Z,50.30
2018-04-17T14:21:01.673Z,50.20
2018-04-17T14:22:07.956Z,50.30
2018-04-17T14:23:11.978Z,51.40
2018-04-17T14:24:17.178Z,50.40
2018-04-17T14:25:22.541Z,50.50
2018-04-17T14:26:27.462Z,50.50
2018-04-17T14:27:33.099Z,50.50
2018-04-17T14:28:38.162Z,49.70
2018-04-17T14:29:43.189Z,50.60
2018-04-17T14:30:49.521Z,50.50
2018-04-17T14:31:53.574Z,50.70
2018-04-17T14:32:57.603Z,50.50